sensor_id;sensor_type;location;lat;lon;timestamp;pressure;altitude;pressure_sealevel;temperature;humidity
75063;BME280;63981;51.052;13.754;2023-02-15T00:01:37;102006.03;;;0.87;92.46
75063;BME280;63981;51.052;13.754;2023-02-15T00:04:04;102012.06;;;0.85;93.23
75063;BME280;63981;51.052;13.754;2023-02-15T00:06:31;102015.53;;;0.82;91.48
75063;BME280;63981;51.052;13.754;2023-02-15T00:08:57;101953.16;;;0.50;92.91
75063;BME280;63981;51.052;13.754;2023-02-15T00:11:24;102010.34;;;0.85;91.78
75063;BME280;63981;51.052;13.754;2023-02-15T00:14:11;101969.63;;;0.54;92.86
75063;BME280;63981;51.052;13.754;2023-02-15T00:16:39;101992.97;;;0.65;92.60
75063;BME280;63981;51.052;13.754;2023-02-15T00:19:06;101981.72;;;0.61;92.63
75063;BME280;63981;51.052;13.754;2023-02-15T00:21:34;102008.63;;;0.80;93.34
75063;BME280;63981;51.052;13.754;2023-02-15T00:24:02;102005.16;;;0.81;93.26
75063;BME280;63981;51.052;13.754;2023-02-15T00:26:29;102001.66;;;0.77;91.57
75063;BME280;63981;51.052;13.754;2023-02-15T00:28:56;102000.78;;;0.77;92.67
75063;BME280;63981;51.052;13.754;2023-02-15T00:31:28;102006.00;;;0.75;93.07
75063;BME280;63981;51.052;13.754;2023-02-15T00:34:01;102001.66;;;0.67;93.28
75063;BME280;63981;51.052;13.754;2023-02-15T00:36:27;101986.88;;;0.52;92.14
75063;BME280;63981;51.052;13.754;2023-02-15T00:38:53;101994.69;;;0.64;92.52
75063;BME280;63981;51.052;13.754;2023-02-15T00:41:20;102000.78;;;0.66;91.67
75063;BME280;63981;51.052;13.754;2023-02-15T00:43:46;101996.47;;;0.71;92.76
75063;BME280;63981;51.052;13.754;2023-02-15T00:46:12;101992.16;;;0.69;92.17
75063;BME280;63981;51.052;13.754;2023-02-15T00:48:39;101992.97;;;0.62;93.33
75063;BME280;63981;51.052;13.754;2023-02-15T00:51:05;101976.53;;;0.53;93.23
75063;BME280;63981;51.052;13.754;2023-02-15T00:53:32;101992.97;;;0.65;91.89
75063;BME280;63981;51.052;13.754;2023-02-15T00:55:58;101953.97;;;0.37;93.26
75063;BME280;63981;51.052;13.754;2023-02-15T00:58:25;101973.91;;;0.44;92.11
75063;BME280;63981;51.052;13.754;2023-02-15T01:00:52;101983.47;;;0.59;93.48
75063;BME280;63981;51.052;13.754;2023-02-15T01:03:19;101975.66;;;0.54;93.65
75063;BME280;63981;51.052;13.754;2023-02-15T01:05:48;101983.41;;;0.51;92.27
75063;BME280;63981;51.052;13.754;2023-02-15T01:08:15;101973.03;;;0.48;92.11
75063;BME280;63981;51.052;13.754;2023-02-15T01:10:41;101973.91;;;0.43;92.54
75063;BME280;63981;51.052;13.754;2023-02-15T01:13:09;101930.59;;;0.20;93.02
75063;BME280;63981;51.052;13.754;2023-02-15T01:15:36;101969.56;;;0.43;92.38
75063;BME280;63981;51.052;13.754;2023-02-15T01:18:02;101919.28;;;0.02;93.88
75063;BME280;63981;51.052;13.754;2023-02-15T01:20:29;101938.34;;;0.19;93.66
75063;BME280;63981;51.052;13.754;2023-02-15T01:22:57;101970.41;;;0.36;92.97
75063;BME280;63981;51.052;13.754;2023-02-15T01:25:24;101967.81;;;0.33;93.69
75063;BME280;63981;51.052;13.754;2023-02-15T01:27:51;101972.13;;;0.28;93.73
75063;BME280;63981;51.052;13.754;2023-02-15T01:30:17;101972.97;;;0.30;93.88
75063;BME280;63981;51.052;13.754;2023-02-15T01:32:43;101971.25;;;0.31;93.77
75063;BME280;63981;51.052;13.754;2023-02-15T01:35:10;101957.44;;;0.28;92.57
75063;BME280;63981;51.052;13.754;2023-02-15T01:37:37;101926.22;;;0.07;92.91
75063;BME280;63981;51.052;13.754;2023-02-15T01:40:06;101953.97;;;0.33;94.00
75063;BME280;63981;51.052;13.754;2023-02-15T01:42:33;101951.38;;;0.36;93.62
75063;BME280;63981;51.052;13.754;2023-02-15T01:45:04;101914.13;;;0.09;92.53
75063;BME280;63981;51.052;13.754;2023-02-15T01:47:47;101951.38;;;0.39;93.65
75063;BME280;63981;51.052;13.754;2023-02-15T01:52:50;101945.31;;;0.34;93.87
75063;BME280;63981;51.052;13.754;2023-02-15T01:55:19;101936.69;;;0.33;92.78
75063;BME280;63981;51.052;13.754;2023-02-15T01:57:47;101928.91;;;0.35;92.48
75063;BME280;63981;51.052;13.754;2023-02-15T02:00:14;101928.91;;;0.30;92.68
75063;BME280;63981;51.052;13.754;2023-02-15T02:02:43;101928.03;;;0.36;92.70
75063;BME280;63981;51.052;13.754;2023-02-15T02:05:12;101909.88;;;0.31;93.81
75063;BME280;63981;51.052;13.754;2023-02-15T02:07:42;101914.25;;;0.43;93.06
75063;BME280;63981;51.052;13.754;2023-02-15T02:10:13;101912.50;;;0.45;93.90
75063;BME280;63981;51.052;13.754;2023-02-15T02:12:41;101873.56;;;0.26;93.43
75063;BME280;63981;51.052;13.754;2023-02-15T02:15:08;101874.41;;;0.25;92.76
75063;BME280;63981;51.052;13.754;2023-02-15T02:32:00;101896.09;;;0.46;93.49
75063;BME280;63981;51.052;13.754;2023-02-15T02:35:00;101903.88;;;0.41;93.10
75063;BME280;63981;51.052;13.754;2023-02-15T02:37:35;101900.41;;;0.39;93.50
75063;BME280;63981;51.052;13.754;2023-02-15T02:40:15;101891.72;;;0.37;92.44
75063;BME280;63981;51.052;13.754;2023-02-15T02:43:01;101895.22;;;0.45;93.44
75063;BME280;63981;51.052;13.754;2023-02-15T02:45:36;101896.09;;;0.43;93.18
75063;BME280;63981;51.052;13.754;2023-02-15T02:48:09;101890.00;;;0.38;92.47
75063;BME280;63981;51.052;13.754;2023-02-15T02:50:39;101891.72;;;0.39;93.23
75063;BME280;63981;51.052;13.754;2023-02-15T02:53:06;101876.16;;;0.31;92.43
75063;BME280;63981;51.052;13.754;2023-02-15T02:55:43;101884.81;;;0.36;93.91
75063;BME280;63981;51.052;13.754;2023-02-15T02:58:21;101754.13;;;-0.44;92.87
75063;BME280;63981;51.052;13.754;2023-02-15T03:01:19;101877.03;;;0.32;92.76
75063;BME280;63981;51.052;13.754;2023-02-15T03:03:48;101883.06;;;0.31;92.40
75063;BME280;63981;51.052;13.754;2023-02-15T03:06:38;101876.16;;;0.36;92.31
75063;BME280;63981;51.052;13.754;2023-02-15T03:09:11;101883.88;;;0.13;93.43
75063;BME280;63981;51.052;13.754;2023-02-15T03:11:47;101793.94;;;-0.22;93.61
75063;BME280;63981;51.052;13.754;2023-02-15T03:14:16;101820.75;;;-0.08;93.57
75063;BME280;63981;51.052;13.754;2023-02-15T03:16:47;101880.44;;;0.24;93.50
75063;BME280;63981;51.052;13.754;2023-02-15T03:19:17;101892.59;;;0.28;93.49
75063;BME280;63981;51.052;13.754;2023-02-15T03:21:51;101845.84;;;0.09;93.62
75063;BME280;63981;51.052;13.754;2023-02-15T03:24:28;101884.78;;;0.25;93.07
75063;BME280;63981;51.052;13.754;2023-02-15T03:26:59;101883.03;;;0.21;92.60
75063;BME280;63981;51.052;13.754;2023-02-15T03:29:27;101890.81;;;0.20;92.61
75063;BME280;63981;51.052;13.754;2023-02-15T03:31:59;101852.75;;;0.04;92.59
75063;BME280;63981;51.052;13.754;2023-02-15T03:34:26;101845.81;;;-0.05;93.38
75063;BME280;63981;51.052;13.754;2023-02-15T03:40:00;101883.00;;;0.08;93.49
75063;BME280;63981;51.052;13.754;2023-02-15T03:42:53;101787.72;;;-0.59;92.91
75063;BME280;63981;51.052;13.754;2023-02-15T03:45:26;101884.78;;;0.15;93.68
75063;BME280;63981;51.052;13.754;2023-02-15T03:47:56;101887.34;;;0.13;93.63
75063;BME280;63981;51.052;13.754;2023-02-15T03:50:28;101844.94;;;-0.12;93.38
75063;BME280;63981;51.052;13.754;2023-02-15T03:53:15;101883.88;;;0.13;93.00
75063;BME280;63981;51.052;13.754;2023-02-15T03:55:47;101883.88;;;0.04;92.61
75063;BME280;63981;51.052;13.754;2023-02-15T03:58:14;101885.59;;;0.05;93.92
75063;BME280;63981;51.052;13.754;2023-02-15T04:01:06;101848.38;;;-0.13;92.74
75063;BME280;63981;51.052;13.754;2023-02-15T04:04:00;101887.31;;;0.07;93.32
75063;BME280;63981;51.052;13.754;2023-02-15T04:06:27;101889.91;;;0.03;92.94
75063;BME280;63981;51.052;13.754;2023-02-15T04:08:53;101878.63;;;-0.07;93.56
75063;BME280;63981;51.052;13.754;2023-02-15T04:11:38;101883.81;;;-0.10;93.48
75063;BME280;63981;51.052;13.754;2023-02-15T04:14:04;101881.22;;;-0.03;93.45
75063;BME280;63981;51.052;13.754;2023-02-15T04:16:50;101876.03;;;-0.07;93.10
75063;BME280;63981;51.052;13.754;2023-02-15T04:19:16;101816.28;;;-0.48;93.55
75063;BME280;63981;51.052;13.754;2023-02-15T04:22:01;101836.13;;;-0.52;93.12
75063;BME280;63981;51.052;13.754;2023-02-15T04:24:46;101881.19;;;-0.13;93.20
75063;BME280;63981;51.052;13.754;2023-02-15T04:27:31;101870.78;;;-0.22;93.41
75063;BME280;63981;51.052;13.754;2023-02-15T04:29:57;101826.59;;;-0.53;92.96
75063;BME280;63981;51.052;13.754;2023-02-15T04:32:23;101809.25;;;-0.68;93.27
75063;BME280;63981;51.052;13.754;2023-02-15T04:34:49;101850.03;;;-0.28;93.47
75063;BME280;63981;51.052;13.754;2023-02-15T04:37:16;101876.00;;;-0.16;93.37
75063;BME280;63981;51.052;13.754;2023-02-15T04:39:42;101876.84;;;-0.14;93.59
75063;BME280;63981;51.052;13.754;2023-02-15T04:42:08;101878.59;;;-0.18;93.13
75063;BME280;63981;51.052;13.754;2023-02-15T04:44:35;101874.25;;;-0.20;92.67
75063;BME280;63981;51.052;13.754;2023-02-15T04:47:01;101871.66;;;-0.16;93.57
75063;BME280;63981;51.052;13.754;2023-02-15T04:49:27;101858.72;;;-0.14;93.14
75063;BME280;63981;51.052;13.754;2023-02-15T04:51:53;101866.47;;;-0.22;93.92
75063;BME280;63981;51.052;13.754;2023-02-15T04:54:20;101870.75;;;-0.27;94.14
75063;BME280;63981;51.052;13.754;2023-02-15T04:56:46;101798.94;;;-0.60;92.91
75063;BME280;63981;51.052;13.754;2023-02-15T04:59:12;101786.00;;;-0.55;92.56
75063;BME280;63981;51.052;13.754;2023-02-15T05:01:41;101773.00;;;-0.66;93.74
75063;BME280;63981;51.052;13.754;2023-02-15T05:04:07;101801.59;;;-0.49;93.12
75063;BME280;63981;51.052;13.754;2023-02-15T05:06:33;101856.13;;;-0.17;93.37
75063;BME280;63981;51.052;13.754;2023-02-15T05:09:00;101844.88;;;-0.19;93.54
75063;BME280;63981;51.052;13.754;2023-02-15T05:11:26;101809.38;;;-0.42;93.87
75063;BME280;63981;51.052;13.754;2023-02-15T05:13:53;101844.03;;;-0.15;93.44
75063;BME280;63981;51.052;13.754;2023-02-15T05:16:19;101734.16;;;-0.74;93.37
75063;BME280;63981;51.052;13.754;2023-02-15T05:18:45;101782.59;;;-0.50;93.78
75063;BME280;63981;51.052;13.754;2023-02-15T05:21:11;101818.09;;;-0.26;93.40
75063;BME280;63981;51.052;13.754;2023-02-15T05:23:39;101677.91;;;-1.10;92.94
75063;BME280;63981;51.052;13.754;2023-02-15T05:26:05;101807.69;;;-0.31;93.34
75063;BME280;63981;51.052;13.754;2023-02-15T05:28:50;101767.94;;;-0.51;93.41
75063;BME280;63981;51.052;13.754;2023-02-15T05:31:18;101836.25;;;-0.14;93.40
75063;BME280;63981;51.052;13.754;2023-02-15T05:33:44;101795.63;;;-0.30;92.73
75063;BME280;63981;51.052;13.754;2023-02-15T05:36:11;101780.91;;;-0.39;92.91
75063;BME280;63981;51.052;13.754;2023-02-15T05:38:38;101821.56;;;-0.15;92.67
75063;BME280;63981;51.052;13.754;2023-02-15T05:41:09;101806.06;;;-0.06;93.21
75063;BME280;63981;51.052;13.754;2023-02-15T05:43:36;101836.34;;;0.03;93.29
75063;BME280;63981;51.052;13.754;2023-02-15T05:46:03;101840.63;;;-0.08;93.16
75063;BME280;63981;51.052;13.754;2023-02-15T05:48:30;101806.88;;;-0.20;93.03
75063;BME280;63981;51.052;13.754;2023-02-15T05:50:58;101822.44;;;-0.16;93.16
75063;BME280;63981;51.052;13.754;2023-02-15T05:53:26;101831.94;;;-0.16;93.27
75063;BME280;63981;51.052;13.754;2023-02-15T05:55:52;101832.84;;;-0.05;92.76
75063;BME280;63981;51.052;13.754;2023-02-15T05:58:20;101831.97;;;-0.03;93.10
75063;BME280;63981;51.052;13.754;2023-02-15T06:00:46;101832.88;;;0.07;92.53
75063;BME280;63981;51.052;13.754;2023-02-15T06:03:12;101838.91;;;-0.03;92.89
75063;BME280;63981;51.052;13.754;2023-02-15T06:05:38;101845.81;;;-0.08;93.07
75063;BME280;63981;51.052;13.754;2023-02-15T06:08:04;101844.06;;;-0.05;92.93
75063;BME280;63981;51.052;13.754;2023-02-15T06:10:31;101839.75;;;-0.10;92.71
75063;BME280;63981;51.052;13.754;2023-02-15T06:12:57;101840.56;;;-0.14;93.09
75063;BME280;63981;51.052;13.754;2023-02-15T06:15:23;101844.03;;;-0.15;92.57
75063;BME280;63981;51.052;13.754;2023-02-15T06:17:49;101838.84;;;-0.17;92.88
75063;BME280;63981;51.052;13.754;2023-02-15T06:20:16;101832.78;;;-0.23;92.54
75063;BME280;63981;51.052;13.754;2023-02-15T06:22:42;101838.03;;;-0.13;92.75
75063;BME280;63981;51.052;13.754;2023-02-15T06:25:08;101841.47;;;-0.09;92.66
75063;BME280;63981;51.052;13.754;2023-02-15T06:27:36;101791.28;;;-0.28;92.34
75063;BME280;63981;51.052;13.754;2023-02-15T06:30:04;101829.38;;;-0.10;92.60
75063;BME280;63981;51.052;13.754;2023-02-15T06:32:31;101838.03;;;-0.07;92.18
75063;BME280;63981;51.052;13.754;2023-02-15T06:34:58;101830.25;;;-0.07;92.87
75063;BME280;63981;51.052;13.754;2023-02-15T06:37:24;101773.09;;;-0.46;92.23
75063;BME280;63981;51.052;13.754;2023-02-15T06:39:50;101820.78;;;0.02;91.62
75063;BME280;63981;51.052;13.754;2023-02-15T06:42:16;101779.25;;;-0.23;91.46
75063;BME280;63981;51.052;13.754;2023-02-15T06:44:44;101760.22;;;-0.31;91.94
75063;BME280;63981;51.052;13.754;2023-02-15T06:47:11;101787.00;;;-0.24;91.50
75063;BME280;63981;51.052;13.754;2023-02-15T06:49:37;101837.19;;;0.02;91.73
75063;BME280;63981;51.052;13.754;2023-02-15T06:52:04;101774.88;;;-0.32;91.83
75063;BME280;63981;51.052;13.754;2023-02-15T06:54:30;101832.03;;;0.10;91.19
75063;BME280;63981;51.052;13.754;2023-02-15T06:56:56;101825.13;;;0.18;92.16
75063;BME280;63981;51.052;13.754;2023-02-15T06:59:22;101824.25;;;0.08;91.63
75063;BME280;63981;51.052;13.754;2023-02-15T07:01:49;101780.16;;;-0.04;91.05
75063;BME280;63981;51.052;13.754;2023-02-15T07:04:15;101800.06;;;0.20;90.63
75063;BME280;63981;51.052;13.754;2023-02-15T07:06:41;101763.72;;;-0.06;90.70
75063;BME280;63981;51.052;13.754;2023-02-15T07:09:07;101779.31;;;0.02;91.57
75063;BME280;63981;51.052;13.754;2023-02-15T07:11:34;101806.97;;;0.24;90.80
75063;BME280;63981;51.052;13.754;2023-02-15T07:14:18;101810.47;;;0.44;91.22
75063;BME280;63981;51.052;13.754;2023-02-15T07:16:45;101813.91;;;0.37;89.99
75063;BME280;63981;51.052;13.754;2023-02-15T07:19:11;101749.97;;;0.27;90.17
75063;BME280;63981;51.052;13.754;2023-02-15T07:21:37;101799.22;;;0.50;89.52
75063;BME280;63981;51.052;13.754;2023-02-15T07:24:03;101805.28;;;0.59;89.45
75063;BME280;63981;51.052;13.754;2023-02-15T07:26:33;101774.16;;;0.61;89.37
75063;BME280;63981;51.052;13.754;2023-02-15T07:28:59;101796.63;;;0.83;89.97
75063;BME280;63981;51.052;13.754;2023-02-15T07:31:25;101789.72;;;0.93;88.74
75063;BME280;63981;51.052;13.754;2023-02-15T07:33:52;101754.25;;;0.80;88.01
75063;BME280;63981;51.052;13.754;2023-02-15T07:36:18;101795.75;;;1.09;88.29
75063;BME280;63981;51.052;13.754;2023-02-15T07:38:44;101793.09;;;1.27;87.21
75063;BME280;63981;51.052;13.754;2023-02-15T07:41:13;101780.09;;;1.35;87.83
75063;BME280;63981;51.052;13.754;2023-02-15T07:43:42;101678.16;;;0.69;86.80
75063;BME280;63981;51.052;13.754;2023-02-15T07:46:10;101712.56;;;1.29;87.25
75063;BME280;63981;51.052;13.754;2023-02-15T07:48:38;101773.00;;;1.75;86.05
75063;BME280;63981;51.052;13.754;2023-02-15T07:51:07;101704.78;;;1.32;85.55
75063;BME280;63981;51.052;13.754;2023-02-15T07:53:34;101765.81;;;2.17;85.11
75063;BME280;63981;51.052;13.754;2023-02-15T07:56:03;101771.97;;;2.00;83.13
75063;BME280;63981;51.052;13.754;2023-02-15T07:58:30;101695.81;;;1.86;83.46
75063;BME280;63981;51.052;13.754;2023-02-15T08:01:15;101757.94;;;2.24;83.08
75063;BME280;63981;51.052;13.754;2023-02-15T08:03:42;101603.31;;;1.55;83.05
75063;BME280;63981;51.052;13.754;2023-02-15T08:06:08;101744.63;;;2.59;81.65
75063;BME280;63981;51.052;13.754;2023-02-15T08:08:35;101741.50;;;3.11;80.34
75063;BME280;63981;51.052;13.754;2023-02-15T08:11:24;101738.47;;;4.63;76.75
75063;BME280;63981;51.052;13.754;2023-02-15T08:13:55;101729.81;;;5.52;74.25
75063;BME280;63981;51.052;13.754;2023-02-15T08:16:41;101728.19;;;5.85;71.55
75063;BME280;63981;51.052;13.754;2023-02-15T08:21:36;101721.38;;;4.93;70.43
75063;BME280;63981;51.052;13.754;2023-02-15T08:24:05;101684.28;;;4.27;71.35
75063;BME280;63981;51.052;13.754;2023-02-15T08:26:32;101722.78;;;5.13;69.56
75063;BME280;63981;51.052;13.754;2023-02-15T08:28:59;101729.22;;;4.46;71.01
75063;BME280;63981;51.052;13.754;2023-02-15T08:31:26;101723.44;;;5.24;69.81
75063;BME280;63981;51.052;13.754;2023-02-15T08:33:54;101715.78;;;4.67;72.31
75063;BME280;63981;51.052;13.754;2023-02-15T08:36:23;101719.44;;;5.04;71.39
75063;BME280;63981;51.052;13.754;2023-02-15T08:38:50;101646.19;;;5.08;68.88
75063;BME280;63981;51.052;13.754;2023-02-15T08:41:27;101679.59;;;4.93;69.69
75063;BME280;63981;51.052;13.754;2023-02-15T08:43:56;101717.19;;;4.86;71.38
75063;BME280;63981;51.052;13.754;2023-02-15T08:46:25;101660.84;;;4.24;71.92
75063;BME280;63981;51.052;13.754;2023-02-15T08:48:52;101623.28;;;5.20;68.57
75063;BME280;63981;51.052;13.754;2023-02-15T08:51:23;101706.63;;;5.76;68.82
75063;BME280;63981;51.052;13.754;2023-02-15T08:53:52;101667.91;;;5.91;67.18
75063;BME280;63981;51.052;13.754;2023-02-15T08:56:22;101672.03;;;6.36;65.18
75063;BME280;63981;51.052;13.754;2023-02-15T08:58:49;101701.66;;;6.38;64.93
75063;BME280;63981;51.052;13.754;2023-02-15T09:01:18;101696.28;;;6.76;65.59
75063;BME280;63981;51.052;13.754;2023-02-15T09:03:48;101697.06;;;5.75;66.19
75063;BME280;63981;51.052;13.754;2023-02-15T09:06:16;101707.13;;;5.93;67.99
75063;BME280;63981;51.052;13.754;2023-02-15T09:08:43;101704.06;;;6.11;67.07
75063;BME280;63981;51.052;13.754;2023-02-15T09:11:14;101705.84;;;5.71;67.99
75063;BME280;63981;51.052;13.754;2023-02-15T09:16:20;101626.31;;;5.00;68.84
75063;BME280;63981;51.052;13.754;2023-02-15T09:18:48;101670.50;;;5.93;67.39
75063;BME280;63981;51.052;13.754;2023-02-15T09:21:17;101686.59;;;6.13;66.50
75063;BME280;63981;51.052;13.754;2023-02-15T09:23:45;101696.06;;;6.17;65.85
75063;BME280;63981;51.052;13.754;2023-02-15T09:26:15;101699.44;;;6.91;64.38
75063;BME280;63981;51.052;13.754;2023-02-15T09:28:41;101658.44;;;6.56;63.34
75063;BME280;63981;51.052;13.754;2023-02-15T09:31:16;101574.50;;;6.28;64.20
75063;BME280;63981;51.052;13.754;2023-02-15T09:33:45;101679.94;;;7.60;61.87
75063;BME280;63981;51.052;13.754;2023-02-15T09:36:23;101671.91;;;8.45;60.53
75063;BME280;63981;51.052;13.754;2023-02-15T09:39:25;101670.19;;;9.64;57.14
75063;BME280;63981;51.052;13.754;2023-02-15T09:45:04;101688.06;;;8.07;58.87
75063;BME280;63981;51.052;13.754;2023-02-15T09:50:14;101675.78;;;8.35;59.04
75063;BME280;63981;51.052;13.754;2023-02-15T09:57:58;101679.84;;;8.44;58.14
75063;BME280;63981;51.052;13.754;2023-02-15T10:00:35;101687.31;;;8.29;57.85
75063;BME280;63981;51.052;13.754;2023-02-15T10:03:27;101663.31;;;9.38;56.36
75063;BME280;63981;51.052;13.754;2023-02-15T10:06:15;101661.72;;;8.63;58.70
75063;BME280;63981;51.052;13.754;2023-02-15T10:09:25;101651.88;;;9.39;55.01
75063;BME280;63981;51.052;13.754;2023-02-15T10:14:46;101658.88;;;7.89;58.46
75063;BME280;63981;51.052;13.754;2023-02-15T10:22:33;101640.34;;;10.50;53.38
75063;BME280;63981;51.052;13.754;2023-02-15T10:25:18;101642.13;;;9.63;54.40
75063;BME280;63981;51.052;13.754;2023-02-15T10:27:49;101616.75;;;7.38;59.91
75063;BME280;63981;51.052;13.754;2023-02-15T10:33:03;101646.56;;;8.69;57.50
75063;BME280;63981;51.052;13.754;2023-02-15T10:35:54;101629.41;;;10.39;53.60
75063;BME280;63981;51.052;13.754;2023-02-15T10:41:03;101613.91;;;10.72;50.52
75063;BME280;63981;51.052;13.754;2023-02-15T10:46:37;101598.19;;;13.17;46.80
75063;BME280;63981;51.052;13.754;2023-02-15T10:57:36;101564.59;;;13.17;44.91
75063;BME280;63981;51.052;13.754;2023-02-15T11:06:05;101530.06;;;22.18;29.97
75063;BME280;63981;51.052;13.754;2023-02-15T11:08:37;101557.25;;;17.34;34.57
75063;BME280;63981;51.052;13.754;2023-02-15T11:11:08;101566.59;;;18.23;32.88
75063;BME280;63981;51.052;13.754;2023-02-15T11:13:41;101537.69;;;21.26;28.72
75063;BME280;63981;51.052;13.754;2023-02-15T11:16:14;101533.38;;;22.40;27.78
75063;BME280;63981;51.052;13.754;2023-02-15T11:18:48;101542.38;;;22.21;27.94
75063;BME280;63981;51.052;13.754;2023-02-15T11:21:33;101545.81;;;19.82;30.82
75063;BME280;63981;51.052;13.754;2023-02-15T11:24:10;101565.09;;;18.88;30.59
75063;BME280;63981;51.052;13.754;2023-02-15T11:26:42;101549.69;;;19.45;32.52
75063;BME280;63981;51.052;13.754;2023-02-15T11:29:39;101539.69;;;22.67;24.62
75063;BME280;63981;51.052;13.754;2023-02-15T11:32:30;101553.47;;;18.77;32.34
75063;BME280;63981;51.052;13.754;2023-02-15T11:35:05;101537.28;;;21.98;27.99
75063;BME280;63981;51.052;13.754;2023-02-15T11:37:53;101533.97;;;19.52;32.37
75063;BME280;63981;51.052;13.754;2023-02-15T11:40:24;101520.84;;;25.06;23.91
75063;BME280;63981;51.052;13.754;2023-02-15T11:43:10;101554.81;;;16.57;35.01
75063;BME280;63981;51.052;13.754;2023-02-15T11:45:38;101541.91;;;18.08;32.08
75063;BME280;63981;51.052;13.754;2023-02-15T11:48:11;101520.06;;;23.75;25.05
75063;BME280;63981;51.052;13.754;2023-02-15T11:50:38;101560.41;;;15.61;33.89
75063;BME280;63981;51.052;13.754;2023-02-15T11:53:10;101538.38;;;19.53;31.61
75063;BME280;63981;51.052;13.754;2023-02-15T11:55:37;101552.31;;;15.90;34.32
75063;BME280;63981;51.052;13.754;2023-02-15T11:58:28;101521.56;;;19.19;30.65
75063;BME280;63981;51.052;13.754;2023-02-15T12:01:02;101504.88;;;16.47;33.46
75063;BME280;63981;51.052;13.754;2023-02-15T12:03:46;101544.38;;;16.15;36.42
75063;BME280;63981;51.052;13.754;2023-02-15T12:06:15;101514.31;;;20.98;27.79
75063;BME280;63981;51.052;13.754;2023-02-15T12:08:52;101516.75;;;19.77;28.69
75063;BME280;63981;51.052;13.754;2023-02-15T12:11:25;101436.22;;;22.72;25.37
75063;BME280;63981;51.052;13.754;2023-02-15T12:14:03;101524.56;;;17.44;31.59
75063;BME280;63981;51.052;13.754;2023-02-15T12:17:00;101505.63;;;21.25;28.87
75063;BME280;63981;51.052;13.754;2023-02-15T12:21:56;101511.16;;;18.49;31.78
75063;BME280;63981;51.052;13.754;2023-02-15T12:24:28;101515.34;;;14.78;37.45
75063;BME280;63981;51.052;13.754;2023-02-15T12:29:51;101481.94;;;19.67;29.78
75063;BME280;63981;51.052;13.754;2023-02-15T12:32:27;101455.28;;;19.66;30.02
75063;BME280;63981;51.052;13.754;2023-02-15T12:35:12;101497.75;;;16.10;35.80
75063;BME280;63981;51.052;13.754;2023-02-15T12:37:52;101432.94;;;13.21;39.24
75063;BME280;63981;51.052;13.754;2023-02-15T12:40:25;101503.38;;;13.23;40.31
75063;BME280;63981;51.052;13.754;2023-02-15T12:42:54;101461.25;;;13.35;40.82
75063;BME280;63981;51.052;13.754;2023-02-15T12:45:26;101497.91;;;12.79;42.15
75063;BME280;63981;51.052;13.754;2023-02-15T12:50:39;101481.84;;;11.12;47.24
75063;BME280;63981;51.052;13.754;2023-02-15T12:53:12;101499.34;;;10.19;49.58
75063;BME280;63981;51.052;13.754;2023-02-15T12:55:50;101503.34;;;9.67;50.04
75063;BME280;63981;51.052;13.754;2023-02-15T12:58:19;101498.34;;;10.61;48.94
75063;BME280;63981;51.052;13.754;2023-02-15T13:00:46;101421.91;;;10.03;46.75
75063;BME280;63981;51.052;13.754;2023-02-15T13:03:21;101456.78;;;10.66;47.25
75063;BME280;63981;51.052;13.754;2023-02-15T13:05:55;101494.13;;;8.91;50.94
75063;BME280;63981;51.052;13.754;2023-02-15T13:08:27;101501.66;;;7.55;56.11
75063;BME280;63981;51.052;13.754;2023-02-15T13:11:09;101501.34;;;9.08;52.71
75063;BME280;63981;51.052;13.754;2023-02-15T13:13:54;101463.63;;;11.08;47.33
75063;BME280;63981;51.052;13.754;2023-02-15T13:16:38;101441.84;;;10.29;49.61
75063;BME280;63981;51.052;13.754;2023-02-15T13:19:10;101494.31;;;9.08;51.47
75063;BME280;63981;51.052;13.754;2023-02-15T13:21:40;101492.91;;;9.22;51.80
75063;BME280;63981;51.052;13.754;2023-02-15T13:24:17;101490.00;;;11.08;48.06
75063;BME280;63981;51.052;13.754;2023-02-15T13:26:46;101476.00;;;12.44;43.11
75063;BME280;63981;51.052;13.754;2023-02-15T13:29:34;101425.91;;;11.75;44.30
75063;BME280;63981;51.052;13.754;2023-02-15T13:32:23;101468.44;;;13.17;41.98
75063;BME280;63981;51.052;13.754;2023-02-15T13:34:54;101450.44;;;14.12;40.57
75063;BME280;63981;51.052;13.754;2023-02-15T13:40:46;101340.19;;;11.30;43.88
75063;BME280;63981;51.052;13.754;2023-02-15T13:43:40;101493.38;;;11.29;46.71
75063;BME280;63981;51.052;13.754;2023-02-15T13:54:33;101459.59;;;17.33;32.43
75063;BME280;63981;51.052;13.754;2023-02-15T13:57:25;101493.75;;;11.92;43.71
75063;BME280;63981;51.052;13.754;2023-02-15T14:03:12;101487.06;;;12.02;44.89
75063;BME280;63981;51.052;13.754;2023-02-15T14:05:53;101477.00;;;12.90;40.87
75063;BME280;63981;51.052;13.754;2023-02-15T14:08:38;101483.72;;;13.43;41.01
75063;BME280;63981;51.052;13.754;2023-02-15T14:11:43;101496.97;;;10.52;46.72
75063;BME280;63981;51.052;13.754;2023-02-15T14:17:15;101496.53;;;9.41;50.66
75063;BME280;63981;51.052;13.754;2023-02-15T14:19:57;101500.28;;;9.13;51.28
75063;BME280;63981;51.052;13.754;2023-02-15T14:22:28;101487.56;;;10.08;48.78
75063;BME280;63981;51.052;13.754;2023-02-15T14:30:33;101472.13;;;10.96;47.76
75063;BME280;63981;51.052;13.754;2023-02-15T14:33:19;101481.03;;;9.75;49.85
75063;BME280;63981;51.052;13.754;2023-02-15T14:35:51;101432.34;;;9.23;50.43
75063;BME280;63981;51.052;13.754;2023-02-15T14:46:38;101483.72;;;9.11;51.24
75063;BME280;63981;51.052;13.754;2023-02-15T14:49:11;101425.06;;;8.17;53.16
75063;BME280;63981;51.052;13.754;2023-02-15T14:56:45;101508.31;;;6.54;60.05
75063;BME280;63981;51.052;13.754;2023-02-15T15:01:38;101506.69;;;6.18;61.88
75063;BME280;63981;51.052;13.754;2023-02-15T15:04:14;101514.81;;;6.40;61.38